SBOSBO CHQ / LGSA
Speedbird OnlineSpeedbird Online CHQ / LGSA

Chania International Airport
11:06 22°C

Location Chania, Greece
Latitude: 35.531700134277344
Longitude: 24.149700164794922
Web Wikipedia
Altitude 149 Meter / 490 Feet
Distance 2,606 KM / 1,619 Miles
from London.
Time Zone UTC +3 hours (Europe/Athens)
Codes IATA: CHQ
ICAO: LGSA
Currency £1 equals EUR 1.15
Runways
RunwayLength (m)Surface
113347Asphalt
293347Asphalt
Radio
TypeDescriptionFrequency
A/GCHANIA RDO563.7
APPAPP118.125
GNDGND121.7
MISCRANGER BASE25.24
OPSBASE OPS35.94
PMSVPMSV METRO35.94
POSTBULL PEN27.895
TWRTWR121.1
Live ATC
METAR LGSA 060750Z 30010KT 9999 SCT025 22/10 Q1021
TAF TAF LGSA 060500Z 0606/0706 36014KT 9999 SCT025 SCT070 TEMPO 0607/0619 36015G25KT PROB40 TEMPO 0611/0706 5000 RA FEW018TCU BKN025
Weather As Of 06 Oct 2022 11:06
Description Scattered clouds
Wind 19 km/h from North-West (300°)
Cloud Cover 40%
Precipitation Rain: none, Snow: none
Sunrise 07:21
Sunset 19:01
Rotations During the last 90 days there were
71 flights from LHR
67 flights to LHR


© 2017-2022 Speedbird Online